Time;durP1;ratioP1;P1;durP2;ratioP2;P2;SDS_P1;SDS_P2;PMS_P1;PMS_P2;Temp;Humidity;BMP_temperature;BMP_pressure;BME280_temperature;BME280_humidity;BME280_pressure;Samples;Min_cycle;Max_cycle;Signal;HPM_P1;HPM_P2
2022/12/07 00:01:51;;;;;;;19.70;11.97;;;5.30;99.90;;;;;;5051403;28;20201;-50
2022/12/07 00:04:18;;;;;;;15.45;10.57;;;5.40;99.90;;;;;;5051630;28;20449;-50
2022/12/07 00:06:52;;;;;;;17.30;10.80;;;5.10;99.90;;;;;;5054507;28;20646;-49
2022/12/07 00:09:19;;;;;;;13.32;9.63;;;5.20;99.90;;;;;;5055396;28;20480;-49
2022/12/07 00:11:50;;;;;;;15.45;9.70;;;5.10;99.90;;;;;;5055725;28;20767;-48
2022/12/07 00:14:18;;;;;;;11.98;9.60;;;5.30;99.90;;;;;;5055562;28;20210;-49
2022/12/07 00:16:46;;;;;;;13.48;9.73;;;5.20;99.90;;;;;;5055616;28;20230;-51
2022/12/07 00:19:14;;;;;;;15.60;10.07;;;5.40;99.90;;;;;;5054982;28;20429;-50
2022/12/07 00:21:40;;;;;;;13.95;9.90;;;5.00;99.90;;;;;;5055495;28;20411;-50
2022/12/07 00:24:07;;;;;;;15.43;11.20;;;4.80;99.90;;;;;;5055621;28;20200;-49
2022/12/07 00:26:35;;;;;;;12.13;10.10;;;4.90;99.90;;;;;;5055421;28;20679;-49
2022/12/07 00:29:05;;;;;;;14.10;10.50;;;5.40;99.90;;;;;;5054673;28;20192;-48
2022/12/07 00:31:38;;;;;;;12.10;10.03;;;5.30;99.90;;;;;;5055425;28;20415;-48
2022/12/07 00:34:05;;;;;;;13.33;9.70;;;5.20;99.90;;;;;;5055246;28;20449;-49
2022/12/07 00:36:31;;;;;;;14.35;10.30;;;5.50;99.90;;;;;;5055167;28;20458;-50
2022/12/07 00:38:59;;;;;;;13.80;10.27;;;5.40;99.90;;;;;;5036641;28;20200;-49
2022/12/07 00:41:28;;;;;;;12.30;9.75;;;5.30;99.90;;;;;;5055182;28;20442;-50
2022/12/07 00:43:55;;;;;;;14.00;10.63;;;5.20;99.90;;;;;;5055179;28;20204;-50
2022/12/07 00:46:22;;;;;;;13.48;9.52;;;5.00;99.90;;;;;;5054728;28;20448;-49
2022/12/07 00:48:51;;;;;;;13.02;9.90;;;5.30;99.90;;;;;;5054369;28;20197;-49
2022/12/07 00:51:20;;;;;;;15.83;9.80;;;4.30;99.90;;;;;;5055066;28;20219;-49
2022/12/07 00:53:47;;;;;;;11.95;10.00;;;4.90;99.90;;;;;;5054888;28;20772;-50
2022/12/07 00:56:15;;;;;;;11.70;9.05;;;4.70;99.90;;;;;;5054829;28;20243;-50
2022/12/07 00:58:42;;;;;;;12.80;9.10;;;4.80;99.90;;;;;;5053980;28;20291;-50
2022/12/07 01:01:11;;;;;;;12.10;8.88;;;4.70;99.90;;;;;;5054790;28;20223;-48
2022/12/07 01:03:38;;;;;;;11.77;9.53;;;5.10;99.90;;;;;;5054946;28;20579;-49
2022/12/07 01:06:06;;;;;;;10.27;8.93;;;4.80;99.90;;;;;;5054869;28;20454;-48
2022/12/07 01:08:33;;;;;;;12.27;9.02;;;4.90;99.90;;;;;;5054279;28;20200;-48
2022/12/07 01:11:01;;;;;;;12.38;9.35;;;4.80;99.90;;;;;;5054773;28;20612;-49
2022/12/07 01:13:28;;;;;;;12.25;9.85;;;4.60;99.90;;;;;;5054608;28;20676;-51
2022/12/07 01:15:58;;;;;;;11.63;9.38;;;4.70;99.90;;;;;;5054574;28;20325;-48
2022/12/07 01:18:24;;;;;;;13.65;9.02;;;4.40;99.90;;;;;;5054248;28;20211;-49
2022/12/07 01:20:59;;;;;;;13.20;9.63;;;4.60;99.90;;;;;;5054711;28;20254;-47
2022/12/07 01:23:27;;;;;;;11.02;8.50;;;4.60;99.90;;;;;;5054884;28;20235;-48
2022/12/07 01:25:56;;;;;;;11.65;9.82;;;4.50;99.90;;;;;;5055019;28;20582;-49
2022/12/07 01:28:23;;;;;;;11.70;9.93;;;4.20;99.90;;;;;;5053805;28;20196;-49
2022/12/07 01:30:56;;;;;;;12.07;9.50;;;5.00;99.90;;;;;;5054127;28;20200;-49
2022/12/07 01:33:23;;;;;;;12.10;9.35;;;4.70;99.90;;;;;;5054382;28;20200;-48
2022/12/07 01:35:50;;;;;;;11.85;9.10;;;4.80;99.90;;;;;;5036225;28;20228;-49
2022/12/07 01:38:16;;;;;;;10.75;8.98;;;4.70;99.90;;;;;;5054111;28;20204;-48
2022/12/07 01:40:44;;;;;;;11.73;9.00;;;4.80;99.90;;;;;;5053273;28;20263;-49
2022/12/07 01:43:17;;;;;;;10.98;8.60;;;5.00;99.90;;;;;;5053982;28;20200;-50
2022/12/07 01:45:44;;;;;;;12.98;7.90;;;4.80;99.90;;;;;;5053846;28;20246;-49
2022/12/07 01:48:14;;;;;;;9.90;8.23;;;4.70;99.90;;;;;;5053907;28;20354;-50
2022/12/07 01:50:42;;;;;;;10.70;8.50;;;4.60;99.90;;;;;;5053373;28;20188;-48
2022/12/07 01:53:11;;;;;;;8.53;7.57;;;4.90;99.90;;;;;;5035890;28;20204;-49
2022/12/07 01:55:42;;;;;;;12.90;9.18;;;4.50;99.90;;;;;;5053644;28;20465;-49
2022/12/07 01:58:12;;;;;;;10.98;7.55;;;4.70;99.90;;;;;;5053802;28;20199;-50
2022/12/07 02:00:39;;;;;;;11.27;7.47;;;4.70;99.90;;;;;;5052946;28;20239;-50
2022/12/07 02:03:09;;;;;;;9.85;7.20;;;5.00;99.90;;;;;;5053754;28;20454;-49
2022/12/07 02:05:39;;;;;;;9.82;7.47;;;5.00;99.90;;;;;;5053614;28;20228;-47
2022/12/07 02:08:06;;;;;;;8.73;6.72;;;4.80;99.90;;;;;;5053501;28;20207;-50
2022/12/07 02:10:33;;;;;;;7.38;6.55;;;5.00;99.90;;;;;;5052807;28;20203;-48
2022/12/07 02:13:03;;;;;;;8.73;7.28;;;5.00;99.90;;;;;;5053458;28;20279;-50
2022/12/07 02:15:42;;;;;;;8.73;6.40;;;4.80;99.90;;;;;;5053335;28;20227;-48
2022/12/07 02:18:16;;;;;;;7.15;6.07;;;4.20;99.90;;;;;;5053387;28;20197;-49
2022/12/07 02:20:51;;;;;;;9.03;5.70;;;5.00;99.90;;;;;;5034744;28;20230;-48
2022/12/07 02:23:40;;;;;;;7.70;6.40;;;5.00;99.90;;;;;;5053229;28;20416;-49
2022/12/07 02:26:41;;;;;;;9.32;6.93;;;5.00;99.90;;;;;;5053190;28;20227;-49
2022/12/07 02:29:17;;;;;;;8.23;6.70;;;4.90;99.90;;;;;;5051897;28;20196;-49
2022/12/07 02:31:49;;;;;;;7.53;5.72;;;4.50;99.90;;;;;;5053087;28;20687;-50
2022/12/07 02:34:23;;;;;;;6.93;6.10;;;4.80;99.90;;;;;;5035152;28;20207;-49
2022/12/07 02:36:56;;;;;;;9.20;6.22;;;4.50;99.90;;;;;;5052969;28;20231;-50
2022/12/07 02:39:32;;;;;;;7.05;5.78;;;4.60;99.90;;;;;;5052131;28;20200;-49
2022/12/07 02:42:03;;;;;;;7.18;6.00;;;4.60;99.90;;;;;;5052783;28;20229;-49
2022/12/07 02:44:33;;;;;;;12.85;6.15;;;4.10;99.90;;;;;;5052929;28;20192;-50
2022/12/07 02:47:03;;;;;;;7.05;5.93;;;4.60;99.90;;;;;;5052727;28;20584;-49
2022/12/07 02:49:30;;;;;;;9.45;6.78;;;4.80;99.90;;;;;;5052065;28;20211;-50
2022/12/07 02:51:57;;;;;;;7.97;6.78;;;4.40;99.90;;;;;;5052742;28;20199;-48
2022/12/07 02:54:24;;;;;;;9.32;7.65;;;4.40;99.90;;;;;;5052549;28;20211;-49
2022/12/07 02:56:57;;;;;;;8.50;7.18;;;4.80;99.90;;;;;;5034661;28;20319;-50
2022/12/07 02:59:36;;;;;;;9.23;7.53;;;4.00;99.90;;;;;;5034063;28;20469;-49
2022/12/07 03:02:13;;;;;;;10.20;7.68;;;4.70;99.90;;;;;;5052202;28;20594;-49
2022/12/07 03:04:50;;;;;;;8.25;6.78;;;4.50;99.90;;;;;;5034672;28;20206;-50
2022/12/07 03:07:27;;;;;;;10.70;7.95;;;3.90;99.90;;;;;;5052768;28;20215;-49
2022/12/07 03:10:01;;;;;;;10.23;7.30;;;4.40;99.90;;;;;;5051809;28;20196;-48
2022/12/07 03:12:35;;;;;;;9.15;7.00;;;4.50;99.90;;;;;;5052326;28;20203;-50
2022/12/07 03:15:09;;;;;;;10.18;7.50;;;4.50;99.90;;;;;;5052269;28;20207;-49
2022/12/07 03:17:40;;;;;;;16.58;8.50;;;4.40;99.90;;;;;;5052488;28;20200;-48
2022/12/07 03:20:12;;;;;;;10.38;7.95;;;4.60;99.90;;;;;;5051591;28;20195;-48
2022/12/07 03:22:41;;;;;;;19.48;9.20;;;4.40;99.90;;;;;;5052229;28;20287;-50
2022/12/07 03:25:11;;;;;;;13.38;8.68;;;4.20;99.90;;;;;;5051926;28;20226;-50
2022/12/07 03:27:45;;;;;;;15.20;8.93;;;4.50;99.90;;;;;;5052155;28;20203;-49
2022/12/07 03:30:17;;;;;;;12.10;8.57;;;4.40;99.90;;;;;;5051565;28;20196;-49
2022/12/07 03:32:49;;;;;;;10.43;7.97;;;4.40;99.90;;;;;;5052676;28;20271;-49
2022/12/07 03:35:19;;;;;;;12.95;8.90;;;4.50;99.90;;;;;;5052102;28;20242;-48
2022/12/07 03:37:50;;;;;;;11.95;9.02;;;4.50;99.90;;;;;;5052050;28;20200;-48
2022/12/07 03:40:23;;;;;;;12.10;9.13;;;4.40;99.90;;;;;;5050292;28;20224;-49
2022/12/07 03:42:52;;;;;;;11.57;9.10;;;4.30;99.90;;;;;;5052008;28;20206;-49
2022/12/07 03:45:24;;;;;;;11.60;9.10;;;4.30;99.90;;;;;;5051733;28;20223;-49
2022/12/07 03:47:58;;;;;;;12.50;10.10;;;4.40;99.90;;;;;;5033882;28;20207;-48
2022/12/07 03:50:31;;;;;;;14.20;10.00;;;4.50;99.90;;;;;;5051157;28;20668;-48
2022/12/07 03:53:05;;;;;;;14.13;9.38;;;4.40;99.90;;;;;;5051992;28;20204;-49
2022/12/07 03:55:35;;;;;;;12.02;9.75;;;4.80;99.90;;;;;;5051787;28;20709;-49
2022/12/07 03:58:05;;;;;;;12.32;9.77;;;4.50;99.90;;;;;;5051845;28;20572;-48
2022/12/07 04:00:33;;;;;;;13.27;10.23;;;4.50;99.90;;;;;;5051041;28;20216;-47
2022/12/07 04:03:00;;;;;;;12.57;9.55;;;4.50;99.90;;;;;;5051773;28;20196;-49
2022/12/07 04:05:27;;;;;;;12.60;8.32;;;4.40;99.90;;;;;;5051611;28;20406;-48
2022/12/07 04:07:54;;;;;;;16.13;10.27;;;4.50;99.90;;;;;;5051551;28;20192;-48
2022/12/07 04:10:20;;;;;;;16.88;9.93;;;4.30;99.90;;;;;;5050994;28;20204;-48
2022/12/07 04:12:47;;;;;;;15.02;10.02;;;4.30;99.90;;;;;;5033872;28;20208;-48
2022/12/07 04:15:14;;;;;;;13.77;10.45;;;3.90;99.90;;;;;;5051586;28;20250;-49
2022/12/07 04:17:42;;;;;;;18.73;11.25;;;4.70;99.90;;;;;;5051721;28;20191;-50
2022/12/07 04:20:10;;;;;;;16.08;10.00;;;4.40;99.90;;;;;;5050854;28;20203;-49
2022/12/07 04:22:36;;;;;;;14.23;11.52;;;4.40;99.90;;;;;;5051417;28;20196;-48
2022/12/07 04:25:03;;;;;;;14.85;11.02;;;4.40;99.90;;;;;;5051480;28;20196;-50
2022/12/07 04:27:30;;;;;;;15.15;11.25;;;4.40;99.90;;;;;;5051585;28;20193;-48
2022/12/07 04:29:57;;;;;;;15.95;11.05;;;4.70;99.90;;;;;;5051073;28;20203;-51
2022/12/07 04:32:24;;;;;;;16.63;12.32;;;4.10;99.90;;;;;;5034062;28;20658;-50
2022/12/07 04:34:52;;;;;;;15.35;10.77;;;4.40;99.90;;;;;;5033692;28;20251;-50
2022/12/07 04:37:18;;;;;;;14.52;10.60;;;4.30;99.90;;;;;;5033713;28;20200;-49
2022/12/07 04:39:45;;;;;;;17.52;12.98;;;4.60;99.90;;;;;;5050672;28;20280;-50
2022/12/07 04:42:12;;;;;;;17.52;12.27;;;4.40;99.90;;;;;;5051409;28;20222;-49
2022/12/07 04:44:39;;;;;;;19.50;13.32;;;4.50;99.90;;;;;;5033564;28;20239;-49
2022/12/07 04:47:06;;;;;;;20.27;13.17;;;4.20;99.90;;;;;;5043438;22;1058621;-49
2022/12/07 04:49:32;;;;;;;16.42;12.45;;;4.00;99.90;;;;;;5070045;28;20210;-49
2022/12/07 04:52:00;;;;;;;26.55;14.13;;;4.40;99.90;;;;;;5072060;28;20199;-48
2022/12/07 04:54:27;;;;;;;17.25;12.57;;;3.90;99.90;;;;;;5074077;28;20206;-49
2022/12/07 04:56:54;;;;;;;20.15;12.65;;;4.40;99.90;;;;;;5074149;28;20215;-50
2022/12/07 04:59:20;;;;;;;20.27;13.02;;;4.90;99.90;;;;;;5073579;28;20204;-49
2022/12/07 05:01:47;;;;;;;20.35;14.23;;;4.40;99.90;;;;;;5074163;28;20227;-50
2022/12/07 05:04:15;;;;;;;20.42;13.63;;;4.20;99.90;;;;;;5074253;28;20195;-49
2022/12/07 05:06:42;;;;;;;19.70;14.50;;;4.50;99.90;;;;;;5074085;28;20223;-50
2022/12/07 05:09:10;;;;;;;19.45;14.35;;;4.30;99.90;;;;;;5073282;28;20203;-50
2022/12/07 05:11:40;;;;;;;20.55;15.52;;;4.30;99.90;;;;;;5074012;28;20222;-48
2022/12/07 05:14:10;;;;;;;22.00;15.20;;;4.30;99.90;;;;;;5074133;28;20332;-48
2022/12/07 05:16:37;;;;;;;25.50;16.67;;;4.40;99.90;;;;;;5073844;28;20215;-49
2022/12/07 05:19:05;;;;;;;22.83;15.43;;;4.50;99.90;;;;;;5073145;28;20237;-48
2022/12/07 05:21:32;;;;;;;22.23;15.60;;;4.60;99.90;;;;;;5073485;28;20211;-49
2022/12/07 05:23:59;;;;;;;22.10;16.98;;;4.50;99.90;;;;;;5073657;28;20211;-49
2022/12/07 05:26:27;;;;;;;29.67;16.70;;;4.70;99.90;;;;;;5074676;28;20219;-48
2022/12/07 05:28:54;;;;;;;23.83;15.85;;;4.50;99.90;;;;;;5072803;28;20560;-49
2022/12/07 05:31:21;;;;;;;21.25;16.17;;;4.80;99.90;;;;;;5073837;28;20196;-49
2022/12/07 05:33:48;;;;;;;27.67;17.88;;;4.60;99.90;;;;;;5073809;28;20286;-48
2022/12/07 05:36:15;;;;;;;23.05;17.05;;;4.80;99.90;;;;;;5073274;28;20214;-49
2022/12/07 05:38:41;;;;;;;25.95;17.20;;;4.50;99.90;;;;;;5072794;28;20563;-49
2022/12/07 05:42:11;;;;;;;27.10;16.95;;;4.50;99.90;;;;;;5073253;28;20215;-49
2022/12/07 05:43:58;;;;;;;25.35;17.13;;;4.70;99.90;;;;;;5073191;28;20611;-49
2022/12/07 05:46:24;;;;;;;26.65;17.98;;;4.50;99.90;;;;;;5073147;28;20233;-50
2022/12/07 05:48:51;;;;;;;29.02;18.50;;;4.80;99.90;;;;;;5072542;28;20611;-49
2022/12/07 05:51:18;;;;;;;27.50;19.80;;;5.00;99.90;;;;;;5072920;28;20195;-49
2022/12/07 05:53:45;;;;;;;26.00;18.13;;;5.10;99.90;;;;;;5072996;28;20200;-49
2022/12/07 05:56:11;;;;;;;32.55;19.40;;;4.70;99.90;;;;;;5073110;28;20691;-48
2022/12/07 06:01:23;;;;;;;30.38;18.50;;;4.80;99.90;;;;;;5072921;28;20221;-49
2022/12/07 06:03:51;;;;;;;31.00;20.08;;;4.90;99.90;;;;;;5072073;28;20666;-49
2022/12/07 06:06:17;;;;;;;28.80;21.13;;;4.60;99.90;;;;;;5072834;28;20222;-49
2022/12/07 06:08:44;;;;;;;33.92;21.60;;;4.90;99.90;;;;;;5072192;28;20195;-49
2022/12/07 06:13:55;;;;;;;32.22;19.92;;;4.90;99.90;;;;;;5072983;28;20295;-49
2022/12/07 06:16:21;;;;;;;29.83;19.67;;;5.20;99.90;;;;;;5072524;28;20227;-51
2022/12/07 06:18:49;;;;;;;27.73;19.50;;;4.80;99.90;;;;;;5072131;28;20556;-48
2022/12/07 06:21:16;;;;;;;32.20;20.67;;;4.90;99.90;;;;;;5072455;28;20436;-50
2022/12/07 06:23:42;;;;;;;29.13;20.08;;;5.10;99.90;;;;;;5072319;28;20195;-48
2022/12/07 06:26:09;;;;;;;31.15;18.45;;;5.00;99.90;;;;;;5072218;28;20442;-49
2022/12/07 06:28:35;;;;;;;33.33;20.93;;;4.40;99.90;;;;;;5071427;28;20606;-48
2022/12/07 06:31:03;;;;;;;29.38;19.95;;;5.30;99.90;;;;;;5071982;28;20522;-49
2022/12/07 06:33:30;;;;;;;33.42;20.10;;;5.10;99.90;;;;;;5072035;28;20191;-49
2022/12/07 06:35:58;;;;;;;33.65;18.45;;;4.60;99.90;;;;;;5072021;28;20215;-48
2022/12/07 06:38:25;;;;;;;26.27;17.50;;;5.10;99.90;;;;;;5071420;28;20196;-48
2022/12/07 06:40:52;;;;;;;25.70;18.08;;;5.20;99.90;;;;;;5071574;28;20278;-50
2022/12/07 06:43:18;;;;;;;35.25;24.08;;;5.40;99.90;;;;;;5072065;28;20203;-49
2022/12/07 06:45:45;;;;;;;28.63;17.38;;;5.30;99.90;;;;;;5071450;28;20235;-49
2022/12/07 06:48:11;;;;;;;29.08;18.27;;;5.20;99.90;;;;;;5071728;28;20199;-50
2022/12/07 06:50:38;;;;;;;27.77;17.38;;;5.30;99.90;;;;;;5071091;28;20617;-49
2022/12/07 06:53:06;;;;;;;26.63;18.17;;;5.30;99.90;;;;;;5071562;28;20191;-50
2022/12/07 06:55:33;;;;;;;26.13;17.38;;;5.30;99.90;;;;;;5072205;28;20226;-51
2022/12/07 06:58:01;;;;;;;28.67;19.03;;;5.10;99.90;;;;;;5071289;28;20199;-50
2022/12/07 07:00:28;;;;;;;27.15;18.83;;;5.10;99.90;;;;;;5071030;28;20581;-50
2022/12/07 07:02:54;;;;;;;27.30;18.58;;;4.60;99.90;;;;;;5071550;28;20322;-50
2022/12/07 07:05:21;;;;;;;24.33;18.13;;;4.80;99.90;;;;;;5071467;28;20199;-50
2022/12/07 07:07:48;;;;;;;27.30;18.15;;;5.10;99.90;;;;;;5071228;28;20203;-49
2022/12/07 07:10:16;;;;;;;25.52;18.60;;;5.30;99.90;;;;;;5070758;28;20272;-50
2022/12/07 07:12:43;;;;;;;25.87;18.30;;;5.20;99.90;;;;;;5071622;28;20195;-48
2022/12/07 07:15:11;;;;;;;29.60;18.92;;;5.10;99.90;;;;;;5071291;28;20434;-49
2022/12/07 07:17:38;;;;;;;25.60;18.17;;;5.30;99.90;;;;;;5071756;28;20207;-50
2022/12/07 07:20:06;;;;;;;27.45;17.70;;;5.50;99.90;;;;;;5070454;28;20521;-48
2022/12/07 07:22:33;;;;;;;35.00;18.00;;;5.20;99.90;;;;;;5071066;28;20233;-50
2022/12/07 07:24:59;;;;;;;25.17;17.52;;;5.30;99.90;;;;;;5071287;28;20195;-50
2022/12/07 07:27:27;;;;;;;26.70;18.13;;;5.10;99.90;;;;;;5071028;28;20220;-49
2022/12/07 07:29:54;;;;;;;26.20;17.40;;;5.50;99.90;;;;;;5070843;28;20922;-48
2022/12/07 07:32:21;;;;;;;28.33;18.02;;;5.20;99.90;;;;;;5071041;28;20187;-49
2022/12/07 07:34:48;;;;;;;23.00;16.40;;;5.00;99.90;;;;;;5070699;28;20223;-49
2022/12/07 07:37:14;;;;;;;25.42;17.20;;;5.50;99.90;;;;;;5071339;28;20228;-50
2022/12/07 07:39:41;;;;;;;28.02;17.05;;;5.20;99.90;;;;;;5069923;28;20207;-49
2022/12/07 07:42:08;;;;;;;33.95;18.35;;;5.40;99.90;;;;;;5071238;28;20226;-49
2022/12/07 07:44:36;;;;;;;29.70;20.20;;;5.70;99.90;;;;;;5070325;28;20625;-49
2022/12/07 07:47:03;;;;;;;24.17;15.82;;;5.20;99.90;;;;;;5052852;28;20574;-49
2022/12/07 07:49:30;;;;;;;26.42;16.55;;;5.30;99.90;;;;;;5070269;28;20227;-49
2022/12/07 07:51:56;;;;;;;22.65;15.60;;;5.60;99.90;;;;;;5070287;28;20206;-49
2022/12/07 07:54:23;;;;;;;21.77;16.00;;;5.40;99.90;;;;;;5070881;28;20294;-50
2022/12/07 07:56:50;;;;;;;19.77;14.83;;;5.70;99.90;;;;;;5070901;28;20219;-50
2022/12/07 07:59:17;;;;;;;22.10;15.40;;;5.60;99.90;;;;;;5069417;28;20797;-51
2022/12/07 08:01:44;;;;;;;23.00;15.20;;;5.10;99.90;;;;;;5070098;28;20501;-48
2022/12/07 08:04:11;;;;;;;21.53;13.10;;;4.90;99.90;;;;;;5070386;28;20205;-49
2022/12/07 08:06:38;;;;;;;17.35;12.43;;;5.60;99.90;;;;;;5070641;28;20434;-49
2022/12/07 08:09:05;;;;;;;22.23;13.57;;;5.70;99.90;;;;;;5070426;28;20199;-50
2022/12/07 08:11:32;;;;;;;16.20;11.50;;;5.60;99.90;;;;;;5070687;28;20749;-48
2022/12/07 08:13:58;;;;;;;13.55;10.80;;;5.40;99.90;;;;;;5070678;28;20445;-50
2022/12/07 08:16:25;;;;;;;16.17;11.90;;;5.80;99.90;;;;;;5070436;28;20226;-49
2022/12/07 08:18:53;;;;;;;19.40;10.60;;;5.50;99.90;;;;;;5069766;28;20619;-48
2022/12/07 08:21:20;;;;;;;11.77;9.23;;;5.60;99.90;;;;;;5070654;28;20489;-50
2022/12/07 08:23:47;;;;;;;13.07;8.82;;;5.50;99.90;;;;;;5070753;28;20937;-50
2022/12/07 08:26:15;;;;;;;12.40;8.73;;;5.70;99.90;;;;;;5070787;28;20220;-49
2022/12/07 08:28:42;;;;;;;18.80;10.73;;;5.70;99.90;;;;;;5073618;28;20206;-49
2022/12/07 08:31:12;;;;;;;13.10;9.47;;;5.50;99.90;;;;;;5074913;28;20225;-54
2022/12/07 08:33:39;;;;;;;10.27;8.10;;;5.60;99.90;;;;;;5074220;28;20458;-49
2022/12/07 08:36:09;;;;;;;7.75;6.90;;;5.60;99.90;;;;;;5074119;28;20216;-48
2022/12/07 08:38:37;;;;;;;13.15;7.78;;;5.70;99.90;;;;;;5073439;28;20547;-49
2022/12/07 08:41:04;;;;;;;12.73;7.60;;;5.80;99.90;;;;;;5074334;28;20196;-49
2022/12/07 08:43:31;;;;;;;9.07;6.43;;;5.60;99.90;;;;;;5074018;28;20226;-49
2022/12/07 08:46:09;;;;;;;8.17;6.53;;;5.70;99.90;;;;;;5055962;28;20999;-49
2022/12/07 08:48:39;;;;;;;8.68;7.25;;;5.60;99.90;;;;;;5073842;28;20438;-49
2022/12/07 08:51:08;;;;;;;10.10;5.53;;;5.50;99.90;;;;;;5074014;28;20203;-49
2022/12/07 08:53:35;;;;;;;7.97;6.10;;;5.90;99.90;;;;;;5074262;28;20829;-50
2022/12/07 08:56:02;;;;;;;6.80;5.63;;;5.80;99.90;;;;;;5074179;28;20808;-50
2022/12/07 08:58:29;;;;;;;7.80;6.10;;;5.90;99.90;;;;;;5073421;28;20408;-49
2022/12/07 09:00:55;;;;;;;6.60;4.90;;;5.50;99.90;;;;;;5073942;28;20420;-49
2022/12/07 09:03:22;;;;;;;5.47;4.87;;;5.80;99.90;;;;;;5073564;28;20481;-49
2022/12/07 09:05:48;;;;;;;6.65;4.75;;;5.90;99.90;;;;;;5074044;28;20446;-50
2022/12/07 09:08:16;;;;;;;6.05;4.88;;;5.80;99.90;;;;;;5073732;28;20204;-50
2022/12/07 09:10:43;;;;;;;5.47;4.23;;;6.00;99.90;;;;;;5073068;28;20223;-50
2022/12/07 09:13:10;;;;;;;5.05;3.83;;;5.80;99.90;;;;;;5073675;28;20424;-48
2022/12/07 09:15:36;;;;;;;6.43;4.37;;;5.90;99.90;;;;;;5073637;28;20224;-49
2022/12/07 09:18:03;;;;;;;3.97;3.50;;;5.70;99.90;;;;;;5073621;28;20749;-50
2022/12/07 09:20:30;;;;;;;4.50;3.90;;;5.80;99.90;;;;;;5054909;28;20192;-49
2022/12/07 09:22:56;;;;;;;4.20;3.37;;;5.30;99.90;;;;;;5073259;28;20989;-49
2022/12/07 09:25:24;;;;;;;4.77;4.20;;;6.10;99.90;;;;;;5055431;28;20434;-49
2022/12/07 09:27:56;;;;;;;4.75;4.00;;;6.00;99.90;;;;;;5073615;28;20405;-50
2022/12/07 09:30:23;;;;;;;4.80;3.07;;;5.80;99.90;;;;;;5073156;28;20211;-49
2022/12/07 09:32:50;;;;;;;3.73;3.17;;;6.00;99.90;;;;;;5073563;28;20442;-49
2022/12/07 09:35:16;;;;;;;6.72;2.85;;;5.90;99.90;;;;;;5073470;28;20847;-49
2022/12/07 09:37:43;;;;;;;3.33;2.57;;;5.70;99.90;;;;;;5072446;28;20195;-48
2022/12/07 09:40:10;;;;;;;3.50;2.87;;;5.20;99.90;;;;;;5071973;28;21067;-50
2022/12/07 09:42:43;;;;;;;4.70;3.30;;;5.80;99.90;;;;;;5054864;28;20471;-50
2022/12/07 09:45:16;;;;;;;7.53;4.00;;;5.60;99.90;;;;;;5073188;28;20200;-49
2022/12/07 09:47:43;;;;;;;5.97;3.28;;;5.80;99.90;;;;;;5073031;28;20294;-49
2022/12/07 09:50:15;;;;;;;4.70;3.17;;;5.60;99.90;;;;;;5072830;28;20672;-49
2022/12/07 09:52:43;;;;;;;5.53;3.20;;;5.60;99.90;;;;;;5072847;28;20199;-49
2022/12/07 09:55:13;;;;;;;4.13;2.90;;;5.80;99.90;;;;;;5073029;28;20196;-49
2022/12/07 09:57:41;;;;;;;3.75;2.80;;;5.70;99.90;;;;;;5072744;28;20191;-49
2022/12/07 10:00:13;;;;;;;4.97;3.53;;;5.80;99.90;;;;;;5071629;28;20199;-49
2022/12/07 10:02:42;;;;;;;3.83;2.90;;;6.00;99.90;;;;;;5072856;28;20448;-49
2022/12/07 10:05:15;;;;;;;3.60;3.22;;;5.60;99.90;;;;;;5072990;28;20852;-50
2022/12/07 10:07:41;;;;;;;4.00;3.60;;;5.70;99.90;;;;;;5072786;28;20195;-49
2022/12/07 10:10:15;;;;;;;2.87;2.57;;;4.90;99.90;;;;;;5072418;28;20455;-49
2022/12/07 10:12:56;;;;;;;3.83;3.00;;;5.80;99.90;;;;;;5073031;28;20426;-47
2022/12/07 10:15:23;;;;;;;7.70;5.13;;;5.80;99.90;;;;;;5072566;28;20473;-50
2022/12/07 10:17:51;;;;;;;9.70;6.00;;;5.10;99.90;;;;;;5072516;28;20199;-49
2022/12/07 10:20:25;;;;;;;13.80;10.70;;;5.70;99.90;;;;;;5072274;28;20442;-49
2022/12/07 10:22:56;;;;;;;15.50;5.80;;;5.70;99.90;;;;;;5072233;28;20466;-49
2022/12/07 10:25:25;;;;;;;7.20;3.40;;;5.70;99.90;;;;;;5072582;28;20437;-48
2022/12/07 10:28:01;;;;;;;4.78;3.08;;;5.70;99.90;;;;;;5072465;28;20438;-48
2022/12/07 10:30:28;;;;;;;3.30;2.67;;;5.90;99.90;;;;;;5071972;28;20195;-48
2022/12/07 10:32:54;;;;;;;4.73;2.30;;;5.70;99.90;;;;;;5072328;28;20437;-49
2022/12/07 10:35:25;;;;;;;4.13;2.92;;;5.70;99.90;;;;;;5072332;28;20439;-50
2022/12/07 10:37:53;;;;;;;3.17;2.70;;;5.70;99.90;;;;;;5072791;28;20587;-49
2022/12/07 10:40:29;;;;;;;5.87;3.00;;;5.40;99.90;;;;;;5071566;28;20492;-48
2022/12/07 10:43:18;;;;;;;4.20;3.00;;;6.00;99.90;;;;;;5072142;28;20889;-50
2022/12/07 10:46:13;;;;;;;2.93;2.63;;;5.80;99.90;;;;;;5072523;28;20461;-47
2022/12/07 10:48:47;;;;;;;4.77;2.60;;;5.90;99.90;;;;;;5053566;28;20458;-47
2022/12/07 10:51:18;;;;;;;6.20;3.30;;;5.60;99.90;;;;;;5072053;28;20439;-49
2022/12/07 10:54:01;;;;;;;7.90;3.60;;;5.80;99.90;;;;;;5071852;28;20401;-47
2022/12/07 10:56:45;;;;;;;6.20;4.93;;;5.60;99.90;;;;;;5072256;28;20491;-47
2022/12/07 10:59:30;;;;;;;9.77;4.87;;;5.60;99.90;;;;;;5071151;28;20796;-48
2022/12/07 11:02:07;;;;;;;5.75;4.10;;;5.70;99.90;;;;;;5071951;28;20451;-48
2022/12/07 11:04:41;;;;;;;7.22;4.15;;;5.90;99.90;;;;;;5071775;28;20687;-47
2022/12/07 11:07:14;;;;;;;7.90;5.20;;;5.80;99.90;;;;;;5071835;28;20216;-48
2022/12/07 11:10:06;;;;;;;11.30;4.63;;;5.60;99.90;;;;;;5071267;28;20413;-49
2022/12/07 11:12:44;;;;;;;4.47;4.00;;;5.60;99.90;;;;;;5067709;28;20440;-47
2022/12/07 11:15:19;;;;;;;5.70;4.67;;;6.10;99.90;;;;;;5072102;28;20532;-47
2022/12/07 11:17:53;;;;;;;7.50;4.07;;;5.90;99.90;;;;;;5071602;28;20408;-47
2022/12/07 11:20:36;;;;;;;11.23;5.30;;;5.90;99.90;;;;;;5053156;28;20942;-47
2022/12/07 11:23:13;;;;;;;9.13;4.90;;;5.90;99.90;;;;;;5053688;28;20471;-49
2022/12/07 11:25:49;;;;;;;7.93;4.63;;;6.00;99.90;;;;;;5072189;28;20450;-47
2022/12/07 11:28:29;;;;;;;6.13;4.17;;;5.40;99.90;;;;;;5072143;28;20440;-48
2022/12/07 11:31:06;;;;;;;9.50;5.97;;;5.90;99.90;;;;;;5072314;28;20878;-47
2022/12/07 11:33:40;;;;;;;6.15;5.03;;;6.40;99.90;;;;;;5072518;28;20538;-46
2022/12/07 11:36:25;;;;;;;8.90;4.73;;;6.00;99.90;;;;;;5072502;28;20231;-48
2022/12/07 11:38:56;;;;;;;7.40;4.50;;;5.70;99.90;;;;;;5071587;28;20437;-47
2022/12/07 11:41:27;;;;;;;8.00;4.57;;;5.90;99.90;;;;;;5071865;28;20447;-48
2022/12/07 11:43:59;;;;;;;8.97;4.50;;;6.00;99.90;;;;;;5071486;28;20453;-48
2022/12/07 11:46:36;;;;;;;8.37;5.20;;;5.70;99.90;;;;;;5071534;28;20437;-49
2022/12/07 11:49:11;;;;;;;7.27;5.40;;;6.00;99.90;;;;;;5070715;28;20439;-49
2022/12/07 11:51:40;;;;;;;5.97;4.40;;;5.90;99.90;;;;;;5071273;28;20519;-48
2022/12/07 11:54:15;;;;;;;7.20;5.37;;;6.00;99.90;;;;;;5052902;28;20425;-47
2022/12/07 11:56:41;;;;;;;5.67;5.07;;;6.00;99.90;;;;;;5071021;28;20473;-49
2022/12/07 11:59:13;;;;;;;6.53;4.80;;;5.90;99.90;;;;;;5070732;28;20434;-49
2022/12/07 12:01:51;;;;;;;7.73;5.63;;;6.30;99.90;;;;;;5072058;28;20431;-48
2022/12/07 12:04:28;;;;;;;8.47;6.07;;;6.00;99.90;;;;;;5075362;28;20484;-48
2022/12/07 12:06:55;;;;;;;7.70;5.00;;;6.60;99.90;;;;;;5075017;28;20454;-49
2022/12/07 12:09:26;;;;;;;10.33;4.30;;;5.80;99.90;;;;;;5074567;28;20438;-48
2022/12/07 12:12:08;;;;;;;8.53;5.10;;;6.10;99.90;;;;;;5075460;28;20427;-47
2022/12/07 12:14:46;;;;;;;9.70;4.53;;;5.70;99.90;;;;;;5075072;28;20434;-47
2022/12/07 12:17:48;;;;;;;11.40;5.23;;;6.20;99.90;;;;;;5074976;28;20436;-47
2022/12/07 12:20:22;;;;;;;8.33;5.10;;;6.20;99.90;;;;;;5070421;28;20899;-48
2022/12/07 12:22:54;;;;;;;13.83;5.73;;;6.20;99.90;;;;;;5074821;28;20924;-49
2022/12/07 12:25:24;;;;;;;9.53;6.17;;;6.50;99.90;;;;;;5075225;28;20850;-47
2022/12/07 12:27:53;;;;;;;8.03;4.87;;;6.20;99.90;;;;;;5075017;28;20489;-48
2022/12/07 12:30:35;;;;;;;11.13;5.50;;;6.00;99.90;;;;;;5056399;28;20490;-48
2022/12/07 12:33:06;;;;;;;9.60;6.03;;;6.40;99.90;;;;;;5074894;28;20928;-48
2022/12/07 12:35:35;;;;;;;6.67;4.30;;;6.50;99.90;;;;;;5074821;28;20429;-46
2022/12/07 12:38:34;;;;;;;6.77;4.87;;;6.20;99.90;;;;;;5074739;28;20408;-49
2022/12/07 12:41:01;;;;;;;10.73;4.80;;;6.60;99.90;;;;;;5004207;28;20950;-49
2022/12/07 12:43:49;;;;;;;8.00;4.13;;;6.40;99.90;;;;;;5074124;28;20566;-48
2022/12/07 12:46:53;;;;;;;7.50;4.60;;;6.90;99.90;;;;;;5074399;28;20491;-48
2022/12/07 12:50:05;;;;;;;7.10;4.53;;;6.60;99.90;;;;;;5073878;28;20411;-47
2022/12/07 12:52:52;;;;;;;10.20;4.57;;;6.60;99.90;;;;;;5074448;28;20439;-48
2022/12/07 12:56:11;;;;;;;6.90;4.73;;;6.40;99.90;;;;;;5074526;28;21046;-48
2022/12/07 12:58:41;;;;;;;12.63;4.17;;;6.30;99.90;;;;;;5073868;28;20417;-48
2022/12/07 13:01:45;;;;;;;7.87;4.43;;;6.30;99.90;;;;;;5073944;28;20924;-48
2022/12/07 13:04:36;;;;;;;6.50;4.17;;;6.50;99.90;;;;;;5074369;28;20985;-48
2022/12/07 13:07:05;;;;;;;13.60;4.90;;;6.20;99.90;;;;;;5074238;28;20461;-46
2022/12/07 13:09:36;;;;;;;10.33;3.60;;;5.90;99.90;;;;;;5073613;28;20408;-47
2022/12/07 13:12:06;;;;;;;6.70;3.37;;;6.50;99.90;;;;;;5074016;28;20413;-47